Time;durP1;ratioP1;P1;durP2;ratioP2;P2;SDS_P1;SDS_P2;PMS_P1;PMS_P2;Temp;Humidity;BMP_temperature;BMP_pressure;BME280_temperature;BME280_humidity;BME280_pressure;Samples;Min_cycle;Max_cycle;Signal;HPM_P1;HPM_P2
2022/03/09 00:02:07;;;;;;;;;;;-0.20;90.20;;;-1.03;58.16;97739.81;4989224;28;19914;-80
2022/03/09 00:04:33;;;;;;;;;;;-0.20;90.60;;;-1.08;58.88;97741.47;5007071;28;20367;-80
2022/03/09 00:06:59;;;;;;;;;;;-0.20;90.50;;;-1.31;59.54;97704.94;4992072;28;20224;-80
2022/03/09 00:09:24;;;;;;;;;;;-0.30;90.80;;;-1.25;60.52;97733.47;4981408;28;20032;-80
2022/03/09 00:11:50;;;;;;;;;;;-0.30;91.10;;;-1.31;61.19;97730.81;4999167;28;20304;-80
2022/03/09 00:14:15;;;;;;;;;;;-0.40;91.30;;;-1.41;61.43;97727.19;4992688;28;19925;-80
2022/03/09 00:16:41;;;;;;;;;;;-0.40;91.50;;;-1.42;61.73;97716.81;4989000;28;20334;-80
2022/03/09 00:19:07;;;;;;;;;;;-0.40;91.60;;;-1.39;62.42;97740.16;4989806;28;19917;-80
2022/03/09 00:21:32;;;;;;;;;;;-0.50;91.90;;;-1.43;63.32;97741.81;5004237;28;19917;-80
2022/03/09 00:23:58;;;;;;;;;;;-0.50;92.20;;;-1.63;64.13;97713.06;4985434;28;19917;-80
2022/03/09 00:26:23;;;;;;;;;;;-0.60;92.50;;;-1.48;64.35;97743.47;4984096;28;19989;-80
2022/03/09 00:28:49;;;;;;;;;;;-0.60;92.60;;;-1.75;64.35;97698.19;4968955;28;19914;-80
2022/03/09 00:31:15;;;;;;;;;;;-0.60;92.60;;;-1.65;64.39;97716.44;4983839;28;20122;-80
2022/03/09 00:33:40;;;;;;;;;;;-0.60;92.70;;;-1.58;64.33;97737.28;5004260;28;19914;-80
2022/03/09 00:36:06;;;;;;;;;;;-0.70;92.60;;;-1.75;64.44;97707.69;4981341;28;19921;-80
2022/03/09 00:38:32;;;;;;;;;;;-0.60;92.70;;;-1.79;65.34;97711.06;4982347;28;19920;-80
2022/03/09 00:40:57;;;;;;;;;;;-0.70;92.90;;;-1.66;65.84;97740.59;4987027;28;19921;-80
2022/03/09 00:43:23;;;;;;;;;;;-0.70;93.10;;;-1.85;65.94;97710.94;4989711;28;20294;-80
2022/03/09 00:45:49;;;;;;;;;;;-0.70;93.20;;;-1.75;66.14;97734.41;5003651;28;20323;-79
2022/03/09 00:48:14;;;;;;;;;;;-0.80;93.30;;;-1.85;66.12;97719.56;5003604;28;19917;-80
2022/03/09 00:50:40;;;;;;;;;;;-0.80;93.20;;;-1.69;65.91;97741.38;4985287;28;19932;-81
2022/03/09 00:53:06;;;;;;;;;;;-0.80;93.20;;;-1.74;66.31;97740.47;4998973;28;20037;-81
2022/03/09 00:55:31;;;;;;;;;;;-0.80;93.40;;;-1.78;67.43;97736.06;5000179;28;20429;-81
2022/03/09 00:57:57;;;;;;;;;;;-0.80;93.70;;;-1.85;68.83;97736.81;4965395;28;20421;-81
2022/03/09 01:00:23;;;;;;;;;;;-0.90;94.20;;;-1.94;68.04;97722.00;4981331;28;19933;-81
2022/03/09 01:02:48;;;;;;;;;;;-0.90;94.00;;;-1.86;67.21;97737.66;5002656;28;19952;-81
2022/03/09 01:05:14;;;;;;;;;;;-0.90;93.80;;;-1.80;66.50;97754.13;4979909;28;19917;-81
2022/03/09 01:07:40;;;;;;;;;;;-0.90;93.50;;;-1.79;65.94;97740.38;4977582;28;19928;-81
2022/03/09 01:10:06;;;;;;;;;;;-0.90;93.40;;;-1.75;66.80;97738.72;4997619;28;20410;-80
2022/03/09 01:12:32;;;;;;;;;;;-0.80;93.70;;;-1.85;68.27;97726.47;4981018;28;19913;-81
2022/03/09 01:14:58;;;;;;;;;;;-0.90;94.10;;;-1.99;69.14;97721.03;5000623;28;19913;-80
2022/03/09 01:17:24;;;;;;;;;;;-0.90;94.40;;;-1.90;69.67;97743.59;4985519;28;19925;-81
2022/03/09 01:19:49;;;;;;;;;;;-1.00;94.60;;;-2.04;70.04;97733.03;4982220;28;19924;-80
2022/03/09 01:22:15;;;;;;;;;;;-1.10;94.70;;;-2.05;70.90;97736.44;4981966;28;19929;-81
2022/03/09 01:24:41;;;;;;;;;;;-1.10;95.10;;;-2.06;71.53;97739.88;4985768;28;20628;-81
2022/03/09 01:27:07;;;;;;;;;;;-1.10;95.30;;;-2.20;71.65;97725.00;4977359;28;20027;-80
2022/03/09 01:29:32;;;;;;;;;;;-1.20;95.40;;;-2.19;72.08;97731.03;4982855;28;19920;-80
2022/03/09 01:31:58;;;;;;;;;;;-1.30;95.50;;;-2.26;72.20;97731.75;4982350;28;19921;-80
2022/03/09 01:34:23;;;;;;;;;;;-1.30;95.60;;;-2.36;72.52;97729.00;4994900;28;19971;-80
2022/03/09 01:36:49;;;;;;;;;;;-1.40;95.70;;;-2.37;72.87;97739.28;4979312;28;19928;-80
2022/03/09 01:39:15;;;;;;;;;;;-1.40;95.80;;;-2.42;72.80;97739.22;4977881;28;19917;-80
2022/03/09 01:41:40;;;;;;;;;;;-1.50;95.90;;;-2.45;72.63;97739.16;4993917;28;19913;-81
2022/03/09 01:44:20;;;;;;;;;;;-1.50;95.80;;;-2.42;71.58;97733.16;4993937;28;20397;-81
2022/03/09 01:46:47;;;;;;;;;;;-1.50;95.70;;;-2.38;70.63;97720.34;4978875;28;19913;-80
2022/03/09 01:49:13;;;;;;;;;;;-1.40;95.50;;;-2.23;70.23;97739.56;4975170;28;19921;-80
2022/03/09 01:51:41;;;;;;;;;;;-1.40;95.30;;;-2.37;69.96;97716.03;4979318;28;19928;-80
2022/03/09 01:54:06;;;;;;;;;;;-1.40;95.20;;;-2.28;69.76;97728.28;4993230;28;20145;-80
2022/03/09 01:56:33;;;;;;;;;;;-1.30;95.10;;;-2.25;70.65;97731.78;4977366;28;19917;-81
2022/03/09 01:59:01;;;;;;;;;;;-1.40;95.70;;;-2.26;71.23;97721.41;4984310;28;19924;-80
2022/03/09 02:01:27;;;;;;;;;;;-1.30;95.70;;;-2.47;71.24;97685.75;4986016;28;19921;-80
2022/03/09 02:03:52;;;;;;;;;;;-1.40;95.80;;;-2.29;70.14;97711.03;5007557;28;19901;-80
2022/03/09 02:06:18;;;;;;;;;;;-1.30;95.30;;;-2.23;68.50;97704.25;4996214;28;20409;-81
2022/03/09 02:11:31;;;;;;;;;;;-1.20;94.70;;;-2.22;68.18;97702.56;5006308;28;19927;-83
2022/03/09 02:13:56;;;;;;;;;;;-1.30;94.70;;;-2.16;68.89;97702.66;5012561;28;19925;-87
2022/03/09 02:16:22;;;;;;;;;;;-1.30;94.90;;;-2.16;69.51;97711.28;4996216;28;19918;-83
2022/03/09 02:18:48;;;;;;;;;;;-1.30;95.20;;;-2.26;70.22;97701.63;4990517;28;20359;-83
2022/03/09 02:21:15;;;;;;;;;;;-1.30;95.50;;;-2.22;70.92;97710.31;5006176;28;20303;-83
2022/03/09 02:23:41;;;;;;;;;;;-1.30;95.70;;;-2.28;71.15;97705.88;4975770;28;20008;-85
2022/03/09 02:26:07;;;;;;;;;;;-1.40;95.70;;;-2.33;71.63;97703.22;5009978;28;20015;-83
2022/03/09 02:28:44;;;;;;;;;;;-1.40;96.00;;;-2.51;72.49;97674.47;4989786;28;19981;-83
2022/03/09 02:31:09;;;;;;;;;;;-1.50;96.20;;;-2.45;73.69;97696.97;4987142;28;19928;-84
2022/03/09 02:33:35;;;;;;;;;;;-1.50;96.70;;;-2.47;73.60;97688.31;4988903;28;20000;-84
2022/03/09 02:36:00;;;;;;;;;;;-1.50;96.80;;;-2.62;72.95;97663.03;5008697;28;19921;-84
2022/03/09 02:38:26;;;;;;;;;;;-1.50;96.60;;;-2.41;72.72;97698.75;5015676;28;19964;-83
2022/03/09 02:40:52;;;;;;;;;;;-1.50;96.50;;;-2.41;72.17;97691.00;4990419;28;19971;-84
2022/03/09 02:43:17;;;;;;;;;;;-1.50;96.50;;;-2.53;71.33;97663.22;5009982;28;19996;-83
2022/03/09 02:45:43;;;;;;;;;;;-1.40;96.20;;;-2.53;72.04;97653.78;4990526;28;20415;-86
2022/03/09 02:48:08;;;;;;;;;;;-1.40;96.30;;;-2.29;72.40;97696.41;5012825;28;19932;-83
2022/03/09 02:50:34;;;;;;;;;;;-1.40;96.50;;;-2.40;71.15;97677.25;4992659;28;19921;-85
2022/03/09 02:53:00;;;;;;;;;;;-1.40;96.10;;;-2.38;70.57;97685.91;4990550;28;19952;-83
2022/03/09 02:55:25;;;;;;;;;;;-1.40;96.20;;;-2.29;70.32;97701.56;5011922;28;19929;-84
2022/03/09 02:57:51;;;;;;;;;;;-1.40;95.80;;;-2.41;70.90;97678.94;4997433;28;20394;-86
2022/03/09 03:00:16;;;;;;;;;;;-1.40;96.00;;;-2.47;71.83;97671.09;5007342;28;20072;-84
2022/03/09 03:02:42;;;;;;;;;;;-1.50;96.40;;;-2.48;72.87;97674.50;5013028;28;20008;-83
2022/03/09 03:05:09;;;;;;;;;;;-1.50;96.70;;;-2.51;73.74;97674.47;5015075;28;19971;-83
2022/03/09 03:07:34;;;;;;;;;;;-1.50;97.10;;;-2.57;74.26;97677.78;4992610;28;19918;-83
2022/03/09 03:10:00;;;;;;;;;;;-1.60;97.30;;;-2.54;75.05;97685.59;5010505;28;19972;-86
2022/03/09 03:12:26;;;;;;;;;;;-1.60;97.70;;;-2.76;75.48;97657.63;4990071;28;19914;-83
2022/03/09 03:14:51;;;;;;;;;;;-1.70;97.80;;;-2.73;75.81;97676.66;4992994;28;19944;-83
2022/03/09 03:17:17;;;;;;;;;;;-1.70;98.00;;;-2.73;76.30;97692.13;4987982;28;20426;-83
2022/03/09 03:19:43;;;;;;;;;;;-1.70;98.10;;;-2.74;75.30;97697.25;4972393;28;19920;-84
2022/03/09 03:22:08;;;;;;;;;;;-1.70;97.90;;;-2.89;74.96;97670.31;4987629;28;20387;-82
2022/03/09 03:24:34;;;;;;;;;;;-1.80;97.70;;;-2.73;74.54;97692.13;5007172;28;19928;-84
2022/03/09 03:26:59;;;;;;;;;;;-1.70;97.70;;;-2.77;74.71;97686.88;4986814;28;19913;-87
2022/03/09 03:29:25;;;;;;;;;;;-1.70;97.80;;;-2.79;75.33;97693.72;4991738;28;19948;-83
2022/03/09 03:31:51;;;;;;;;;;;-1.70;98.00;;;-2.71;75.92;97712.78;4987742;28;20536;-84
2022/03/09 03:34:16;;;;;;;;;;;-1.70;98.20;;;-2.84;77.09;97693.59;4990189;28;19964;-84
2022/03/09 03:36:42;;;;;;;;;;;-1.80;98.60;;;-3.04;77.76;97677.72;5005007;28;19944;-84
2022/03/09 03:39:08;;;;;;;;;;;-1.80;98.80;;;-2.91;78.27;97702.97;5007136;28;19913;-83
2022/03/09 03:41:34;;;;;;;;;;;-1.90;99.00;;;-2.89;78.91;97715.88;4998141;28;20316;-84
2022/03/09 03:44:00;;;;;;;;;;;-1.90;99.20;;;-2.97;79.06;97704.53;4987810;28;19917;-85
2022/03/09 03:46:25;;;;;;;;;;;-1.90;99.40;;;-2.95;79.12;97716.63;4989381;28;19914;-84
2022/03/09 03:48:51;;;;;;;;;;;-1.90;99.50;;;-3.01;79.35;97716.50;4989050;28;19949;-83
2022/03/09 03:51:16;;;;;;;;;;;-2.00;99.50;;;-3.04;79.10;97711.25;4992985;28;20572;-84
2022/03/09 03:53:42;;;;;;;;;;;-2.00;99.50;;;-3.04;78.93;97716.41;4990501;28;19967;-83
2022/03/09 03:56:08;;;;;;;;;;;-2.00;99.50;;;-3.05;78.51;97709.53;4988032;28;19940;-83
2022/03/09 03:58:33;;;;;;;;;;;-2.00;99.50;;;-3.00;77.67;97723.38;4991174;28;20291;-84
2022/03/09 04:00:59;;;;;;;;;;;-2.00;99.30;;;-2.98;76.58;97726.00;4993204;28;19913;-83
2022/03/09 04:03:24;;;;;;;;;;;-2.00;99.00;;;-2.99;75.56;97712.22;5006366;28;19921;-82
2022/03/09 04:05:50;;;;;;;;;;;-1.90;99.00;;;-2.83;74.61;97735.81;4993956;28;19921;-85
2022/03/09 04:08:16;;;;;;;;;;;-1.90;98.40;;;-2.88;74.61;97722.78;4988208;28;19956;-84
2022/03/09 04:10:41;;;;;;;;;;;-1.90;98.30;;;-2.82;75.20;97737.53;5006039;28;20378;-85
2022/03/09 04:13:07;;;;;;;;;;;-1.90;98.50;;;-2.95;76.04;97716.63;4985919;28;19937;-84
2022/03/09 04:15:33;;;;;;;;;;;-1.80;98.80;;;-2.78;76.25;97755.72;5003055;28;20308;-83
2022/03/09 04:17:59;;;;;;;;;;;-1.80;98.80;;;-2.79;75.88;97747.94;4992595;28;19929;-83
2022/03/09 04:20:24;;;;;;;;;;;-1.80;98.60;;;-3.06;75.77;97712.94;4989071;28;20390;-83
2022/03/09 04:22:50;;;;;;;;;;;-1.80;98.60;;;-2.92;76.13;97739.91;5001840;28;19941;-87
2022/03/09 04:25:16;;;;;;;;;;;-1.90;98.60;;;-2.95;76.48;97738.97;5023726;28;20512;-84
2022/03/09 04:27:41;;;;;;;;;;;-1.90;98.80;;;-3.25;76.71;97698.75;4968257;28;20037;-88
2022/03/09 04:30:08;;;;;;;;;;;-1.90;99.00;;;-3.11;77.45;97730.03;5002323;28;19921;-84
2022/03/09 04:32:34;;;;;;;;;;;-2.00;99.20;;;-3.24;77.70;97702.22;4988668;28;20072;-84
2022/03/09 04:35:01;;;;;;;;;;;-2.00;99.40;;;-3.10;78.42;97736.94;4980578;28;19929;-86
2022/03/09 04:37:30;;;;;;;;;;;-2.10;99.60;;;-3.16;78.89;97726.47;4988066;28;19922;-83
2022/03/09 04:40:02;;;;;;;;;;;-2.10;99.80;;;-3.28;79.33;97717.63;5004274;28;19918;-84
2022/03/09 04:42:28;;;;;;;;;;;-2.10;99.90;;;-3.21;79.70;97734.13;4981808;28;19924;-86
2022/03/09 04:44:54;;;;;;;;;;;-2.20;99.90;;;-3.23;80.04;97724.59;4983364;28;19917;-88
2022/03/09 04:47:20;;;;;;;;;;;-2.20;99.90;;;-3.56;80.34;97674.84;4983404;28;19923;-83
2022/03/09 04:49:46;;;;;;;;;;;-2.20;99.90;;;-3.37;80.99;97712.25;5002638;28;19917;-82
2022/03/09 04:52:11;;;;;;;;;;;-2.20;99.90;;;-3.60;81.13;97674.75;5006823;28;19968;-83
2022/03/09 04:54:37;;;;;;;;;;;-2.30;99.90;;;-3.42;81.38;97705.25;4994540;28;20003;-83
2022/03/09 04:57:03;;;;;;;;;;;-2.30;99.90;;;-3.47;81.75;97706.00;5008196;28;19917;-84
2022/03/09 04:59:28;;;;;;;;;;;-2.30;99.90;;;-3.43;81.98;97706.94;4992516;28;19921;-84
2022/03/09 05:01:54;;;;;;;;;;;-2.30;99.90;;;-3.53;82.46;97697.28;4988223;28;19953;-83
2022/03/09 05:04:20;;;;;;;;;;;-2.40;99.90;;;-3.57;83.15;97708.31;4991269;28;19940;-85
2022/03/09 05:06:45;;;;;;;;;;;-2.40;99.90;;;-3.51;83.68;97724.81;4998097;28;19917;-83
2022/03/09 05:09:11;;;;;;;;;;;-2.50;99.90;;;-3.65;84.00;97714.16;4990402;28;19968;-83
2022/03/09 05:11:37;;;;;;;;;;;-2.50;99.90;;;-3.68;84.70;97703.81;4989578;28;19972;-82
2022/03/09 05:14:02;;;;;;;;;;;-2.50;99.90;;;-3.83;84.81;97688.81;4973405;28;20402;-83
2022/03/09 05:16:28;;;;;;;;;;;-2.60;99.90;;;-3.71;84.89;97700.28;4990086;28;20048;-83
2022/03/09 05:18:53;;;;;;;;;;;-2.60;99.90;;;-3.64;84.57;97717.66;5011795;28;20015;-84
2022/03/09 05:21:20;;;;;;;;;;;-2.60;99.90;;;-3.72;83.75;97707.13;4990668;28;19917;-87
2022/03/09 05:23:45;;;;;;;;;;;-2.60;99.90;;;-3.62;82.47;97722.81;4989783;28;19940;-86
2022/03/09 05:26:11;;;;;;;;;;;-2.60;99.90;;;-3.61;81.57;97715.13;4987360;28;20379;-87
2022/03/09 05:28:36;;;;;;;;;;;-2.50;99.90;;;-3.57;81.77;97714.38;5007366;28;19917;-85
2022/03/09 05:31:02;;;;;;;;;;;-2.50;99.90;;;-3.62;82.30;97702.19;4992250;28;19913;-83
2022/03/09 05:33:28;;;;;;;;;;;-2.50;99.90;;;-3.42;82.07;97751.69;4990079;28;19973;-83
2022/03/09 05:35:53;;;;;;;;;;;-2.50;99.90;;;-3.50;82.21;97738.56;4990106;28;19952;-83
2022/03/09 05:38:19;;;;;;;;;;;-2.50;99.90;;;-3.48;82.11;97755.00;4996787;28;19909;-86
2022/03/09 05:40:44;;;;;;;;;;;-2.50;99.90;;;-3.63;82.18;97732.25;5007280;28;19924;-84
2022/03/09 05:43:10;;;;;;;;;;;-2.50;99.90;;;-3.68;82.11;97732.16;4990456;28;19913;-83
2022/03/09 05:45:36;;;;;;;;;;;-2.50;99.90;;;-3.57;82.23;97755.63;4989865;28;20314;-83
2022/03/09 05:48:01;;;;;;;;;;;-2.50;99.90;;;-3.56;82.38;97761.66;4989203;28;19945;-84
2022/03/09 05:50:27;;;;;;;;;;;-2.50;99.90;;;-3.57;82.99;97762.47;4993464;28;20208;-83
2022/03/09 05:52:53;;;;;;;;;;;-2.50;99.90;;;-3.54;83.32;97768.56;4976156;28;20346;-83
2022/03/09 05:55:18;;;;;;;;;;;-2.50;99.90;;;-3.52;84.14;97769.47;4970077;28;19933;-84
2022/03/09 05:57:44;;;;;;;;;;;-2.50;99.90;;;-3.58;84.41;97759.03;4986478;28;19963;-83
2022/03/09 06:00:10;;;;;;;;;;;-2.50;99.90;;;-3.73;85.18;97725.13;5005340;28;19921;-83
2022/03/09 06:02:36;;;;;;;;;;;-2.50;99.90;;;-3.61;85.39;97753.78;4991158;28;20460;-83
2022/03/09 06:05:02;;;;;;;;;;;-2.50;99.90;;;-3.57;85.55;97758.22;5012257;28;20036;-84
2022/03/09 06:07:27;;;;;;;;;;;-2.50;99.90;;;-3.56;85.92;97759.94;4971898;28;20415;-83
2022/03/09 06:09:53;;;;;;;;;;;-2.40;99.90;;;-3.54;86.26;97767.72;4994321;28;19920;-84
2022/03/09 06:12:18;;;;;;;;;;;-2.40;99.90;;;-3.55;86.37;97759.13;4991938;28;19909;-85
2022/03/09 06:14:44;;;;;;;;;;;-2.40;99.90;;;-3.52;86.47;97766.91;5013547;28;19921;-83
2022/03/09 06:17:10;;;;;;;;;;;-2.40;99.90;;;-3.41;86.68;97774.94;4989959;28;20020;-84
2022/03/09 06:19:35;;;;;;;;;;;-2.30;99.90;;;-3.41;86.41;97777.50;5012020;28;19931;-83
2022/03/09 06:22:01;;;;;;;;;;;-2.30;99.90;;;-3.33;86.62;97780.25;4988945;28;19921;-84
2022/03/09 06:24:26;;;;;;;;;;;-2.30;99.90;;;-3.42;85.95;97754.25;5006432;28;20131;-83
2022/03/09 06:26:53;;;;;;;;;;;-2.20;99.90;;;-3.28;85.37;97776.94;5010944;28;19913;-83
2022/03/09 06:29:20;;;;;;;;;;;-2.10;99.90;;;-3.21;85.01;97783.13;4986695;28;19913;-82
2022/03/09 06:31:46;;;;;;;;;;;-2.10;99.90;;;-3.01;84.74;97795.63;4975156;28;20387;-87
2022/03/09 06:34:12;;;;;;;;;;;-2.00;99.90;;;-3.08;84.87;97781.69;4989000;28;19920;-86
2022/03/09 06:36:43;;;;;;;;;;;-2.00;99.90;;;-3.00;84.46;97792.19;4989210;28;19918;-83
2022/03/09 06:39:15;;;;;;;;;;;-2.00;99.90;;;-3.11;84.28;97759.25;4975013;28;20194;-84
2022/03/09 06:41:43;;;;;;;;;;;-1.90;99.90;;;-3.02;84.23;97779.25;5002594;28;19900;-86
2022/03/09 06:44:09;;;;;;;;;;;-1.80;99.90;;;-2.90;83.54;97782.13;5012304;28;19921;-84
2022/03/09 06:46:34;;;;;;;;;;;-1.80;99.90;;;-2.75;83.60;97796.19;5009819;28;19939;-87
2022/03/09 06:49:00;;;;;;;;;;;-1.70;99.90;;;-2.66;83.39;97791.22;4972721;28;19991;-84
2022/03/09 06:51:26;;;;;;;;;;;-1.60;99.90;;;-2.86;82.53;97748.63;4978927;28;19917;-83
2022/03/09 06:53:51;;;;;;;;;;;-1.60;99.90;;;-2.78;82.32;97763.44;4991440;28;19972;-83
2022/03/09 06:56:20;;;;;;;;;;;-1.50;99.90;;;-2.45;81.83;97795.13;5011105;28;20003;-84
2022/03/09 06:58:45;;;;;;;;;;;-1.40;99.90;;;-2.50;81.05;97795.88;4991420;28;19925;-85
2022/03/09 07:01:12;;;;;;;;;;;-1.40;99.90;;;-2.47;80.60;97783.88;5011463;28;20280;-86
2022/03/09 07:03:37;;;;;;;;;;;-1.30;99.90;;;-2.21;79.82;97813.69;4978762;28;19917;-83
2022/03/09 07:06:04;;;;;;;;;;;-1.20;99.90;;;-2.09;79.31;97822.53;5012472;28;19909;-84
2022/03/09 07:08:29;;;;;;;;;;;-1.10;99.90;;;-2.03;78.71;97830.41;4991965;28;19928;-89
2022/03/09 07:10:55;;;;;;;;;;;-1.00;99.90;;;-2.04;77.88;97813.16;5012659;28;19914;-83
2022/03/09 07:13:21;;;;;;;;;;;-0.90;99.90;;;-1.89;77.84;97836.69;4989375;28;20352;-83
2022/03/09 07:15:46;;;;;;;;;;;-0.80;99.90;;;-2.19;77.72;97772.38;5012274;28;19924;-83
2022/03/09 07:18:12;;;;;;;;;;;-0.80;99.90;;;-1.59;76.08;97840.72;4990796;28;20012;-83
2022/03/09 07:20:40;;;;;;;;;;;-0.70;99.90;;;-1.60;75.40;97826.91;4973440;28;19921;-84
2022/03/09 07:23:06;;;;;;;;;;;-0.60;99.90;;;-1.42;74.13;97848.75;4987754;28;19909;-84
2022/03/09 07:25:40;;;;;;;;;;;-0.50;99.90;;;-1.32;73.73;97847.22;4988766;28;19924;-83
2022/03/09 07:28:06;;;;;;;;;;;-0.40;99.90;;;-1.36;73.35;97836.81;5005115;28;19909;-85
2022/03/09 07:30:31;;;;;;;;;;;-0.30;99.90;;;-1.11;72.34;97849.28;4990549;28;20206;-84
2022/03/09 07:32:57;;;;;;;;;;;-0.20;99.90;;;-1.15;71.40;97827.66;5011804;28;20011;-83
2022/03/09 07:35:23;;;;;;;;;;;-0.10;99.90;;;-0.98;70.62;97839.16;4993932;28;19980;-84
2022/03/09 07:37:51;;;;;;;;;;;0.00;99.60;;;-0.84;69.97;97857.50;4976968;28;19913;-83
2022/03/09 07:40:17;;;;;;;;;;;0.10;99.40;;;-0.71;68.76;97857.69;4992869;28;19921;-83
2022/03/09 07:42:43;;;;;;;;;;;0.20;98.90;;;-0.64;68.64;97860.38;4989555;28;19909;-83
2022/03/09 07:45:08;;;;;;;;;;;0.30;98.80;;;-0.74;68.06;97840.38;5005746;28;19963;-85
2022/03/09 07:47:35;;;;;;;;;;;0.40;98.60;;;-0.60;66.82;97849.22;5003489;28;21195;-84
2022/03/09 07:50:01;;;;;;;;;;;0.50;98.10;;;-0.38;66.12;97880.59;4989724;28;19913;-86
2022/03/09 07:52:27;;;;;;;;;;;0.50;97.80;;;-0.35;65.22;97867.72;5011641;28;19917;-83
2022/03/09 07:54:52;;;;;;;;;;;0.60;97.50;;;-0.36;65.38;97855.59;4969213;28;19917;-84
2022/03/09 07:57:18;;;;;;;;;;;0.70;97.40;;;-0.37;64.92;97848.69;5014423;28;19952;-85
2022/03/09 07:59:44;;;;;;;;;;;0.80;97.30;;;-0.36;64.75;97844.34;5008160;28;20023;-83
2022/03/09 08:02:09;;;;;;;;;;;0.80;97.20;;;-0.17;64.46;97856.72;5006904;28;19921;-83
2022/03/09 08:04:35;;;;;;;;;;;0.90;97.00;;;-0.10;64.25;97863.72;4973774;28;20059;-84
2022/03/09 08:07:00;;;;;;;;;;;1.00;96.90;;;0.04;63.38;97879.44;4977184;28;19936;-83
2022/03/09 08:09:26;;;;;;;;;;;1.00;96.70;;;0.10;62.67;97884.69;5006881;28;19917;-84
2022/03/09 08:11:52;;;;;;;;;;;1.10;96.30;;;0.21;62.43;97881.38;5014247;23;19928;-46
2022/03/09 08:14:17;;;;;;;;;;;1.10;96.10;;;0.27;62.35;97878.84;5019020;28;20023;-45
2022/03/09 08:16:43;;;;;;;;;;;1.20;96.10;;;0.32;61.40;97875.47;5011305;28;19921;-45
2022/03/09 08:19:08;;;;;;;;;;;1.20;95.80;;;0.39;60.50;97868.59;5013488;28;19925;-46
2022/03/09 08:21:34;;;;;;;;;;;1.30;95.40;;;0.59;59.34;97876.59;5014767;28;19917;-45
2022/03/09 08:24:00;;;;;;;;;;;1.50;94.80;;;0.69;59.31;97870.66;5018167;28;20417;-45
2022/03/09 08:26:25;;;;;;;;;;;1.50;94.80;;;0.79;58.90;97868.13;5017759;28;19913;-47
2022/03/09 08:28:51;;;;;;;;;;;1.70;94.70;;;0.87;58.77;97879.47;5018218;28;19928;-43
2022/03/09 08:31:17;;;;;;;;;;;1.70;94.40;;;0.88;57.60;97879.50;5016668;28;20050;-48
2022/03/09 08:33:43;;;;;;;;;;;1.80;93.90;;;0.97;57.52;97880.41;5016152;28;19917;-45
2022/03/09 08:36:10;;;;;;;;;;;1.90;93.90;;;1.07;56.98;97877.91;5016361;28;19913;-47
2022/03/09 08:38:36;;;;;;;;;;;2.00;93.70;;;1.18;57.11;97878.00;5010292;28;19957;-46
2022/03/09 08:41:02;;;;;;;;;;;2.10;93.80;;;1.23;56.56;97873.72;5013967;28;19948;-47
2022/03/09 08:43:27;;;;;;;;;;;2.10;93.40;;;1.38;56.23;97879.88;5015985;28;19944;-46
2022/03/09 08:45:53;;;;;;;;;;;2.20;93.30;;;1.50;55.08;97885.16;5010639;28;19913;-45
2022/03/09 08:48:18;;;;;;;;;;;2.40;92.70;;;1.69;54.95;97879.22;5014187;28;20518;-47
2022/03/09 08:50:44;;;;;;;;;;;2.50;92.50;;;1.87;54.02;97875.00;5016276;28;19999;-47
2022/03/09 08:53:10;;;;;;;;;;;2.70;92.30;;;2.07;52.44;97872.50;5015410;28;19959;-47
2022/03/09 08:55:36;;;;;;;;;;;2.80;91.50;;;2.20;52.16;97870.81;5014134;28;19912;-47
2022/03/09 08:58:02;;;;;;;;;;;3.00;91.30;;;2.29;51.93;97874.28;5014467;28;19920;-48
2022/03/09 09:00:29;;;;;;;;;;;3.10;91.20;;;2.44;51.02;97873.50;5018263;28;20329;-45
2022/03/09 09:02:55;;;;;;;;;;;3.20;90.50;;;2.59;50.22;97869.19;5009860;28;19966;-46
2022/03/09 09:05:22;;;;;;;;;;;3.30;90.00;;;2.66;50.89;97861.38;5014193;28;20380;-48
2022/03/09 09:07:48;;;;;;;;;;;3.50;90.40;;;2.79;50.32;97859.66;5014984;28;19944;-44
2022/03/09 09:10:13;;;;;;;;;;;3.50;89.80;;;2.91;49.25;97860.53;5015556;28;20382;-46
2022/03/09 09:12:39;;;;;;;;;;;3.60;88.70;;;2.95;48.97;97862.31;5016302;28;19925;-45
2022/03/09 09:15:05;;;;;;;;;;;3.70;88.60;;;3.00;49.17;97858.81;5017088;28;20386;-44
2022/03/09 09:17:31;;;;;;;;;;;3.80;87.80;;;3.13;49.21;97866.66;5012753;28;19999;-46
2022/03/09 09:19:56;;;;;;;;;;;3.80;88.00;;;3.20;48.56;97857.97;5014197;28;20008;-43
2022/03/09 09:22:22;;;;;;;;;;;4.00;87.20;;;3.25;48.43;97862.31;5017551;28;19952;-49
2022/03/09 09:24:48;;;;;;;;;;;4.00;86.90;;;3.33;48.90;97845.78;5006839;28;19921;-44
2022/03/09 09:27:13;;;;;;;;;;;4.10;87.20;;;3.41;48.81;97857.94;5013376;28;20267;-44
2022/03/09 09:29:39;;;;;;;;;;;4.20;87.10;;;3.48;48.51;97856.19;5018656;28;20019;-47
2022/03/09 09:32:05;;;;;;;;;;;4.20;86.90;;;3.57;48.31;97852.69;5013774;28;20357;-48
2022/03/09 09:34:30;;;;;;;;;;;4.30;86.50;;;3.71;47.95;97848.31;5012679;28;19968;-44
2022/03/09 09:36:56;;;;;;;;;;;4.40;85.80;;;3.83;48.07;97847.41;5013025;28;20016;-45
2022/03/09 09:39:22;;;;;;;;;;;4.50;85.90;;;3.90;47.61;97843.06;5016841;28;19914;-48
2022/03/09 09:41:52;;;;;;;;;;;4.60;85.50;;;4.05;47.18;97849.97;5014161;28;19921;-47
2022/03/09 09:44:20;;;;;;;;;;;4.70;85.00;;;4.21;46.32;97844.66;5014565;28;19920;-46
2022/03/09 09:46:45;;;;;;;;;;;4.90;84.10;;;4.30;45.96;97846.34;5011280;28;20362;-43
2022/03/09 09:49:13;;;;;;;;;;;5.00;82.80;;;4.38;46.16;97843.72;5013284;28;19920;-47
2022/03/09 09:51:45;;;;;;;;;;;5.00;83.10;;;4.44;46.14;97842.81;5007546;28;20346;-46
2022/03/09 09:54:13;;;;;;;;;;;5.10;83.00;;;4.51;46.31;97836.69;5011861;28;20274;-43
2022/03/09 09:56:40;;;;;;;;;;;5.20;83.10;;;4.46;45.82;97821.03;5014667;28;20046;-45
2022/03/09 09:59:07;;;;;;;;;;;5.30;82.50;;;4.62;45.52;97839.25;5012827;28;19921;-47
2022/03/09 10:01:32;;;;;;;;;;;5.30;81.90;;;4.71;45.43;97833.94;5015335;28;19982;-47
2022/03/09 10:03:58;;;;;;;;;;;5.40;81.60;;;4.73;45.07;97848.72;5013890;28;20865;-49
2022/03/09 10:06:24;;;;;;;;;;;5.50;81.20;;;4.77;44.91;97841.72;5010919;28;20092;-46
2022/03/09 10:09:06;;;;;;;;;;;5.50;81.10;;;4.79;44.17;97837.34;5016201;28;19978;-43
2022/03/09 10:11:45;;;;;;;;;;;5.50;79.60;;;4.88;44.37;97833.81;5014742;28;19996;-45
2022/03/09 10:14:11;;;;;;;;;;;5.60;79.70;;;4.96;43.70;97835.50;5012461;28;20285;-45
2022/03/09 10:16:37;;;;;;;;;;;5.60;78.90;;;5.07;43.54;97840.66;5013183;28;20374;-46
2022/03/09 10:19:03;;;;;;;;;;;5.70;78.40;;;5.17;43.79;97844.06;5014835;28;19963;-45
2022/03/09 10:21:35;;;;;;;;;;;5.80;78.50;;;5.24;43.76;97853.59;5013845;28;19924;-44
2022/03/09 10:24:08;;;;;;;;;;;5.90;78.60;;;5.32;43.64;97851.78;5013301;28;20429;-46
2022/03/09 10:26:34;;;;;;;;;;;6.00;78.20;;;5.36;43.72;97847.38;5014062;28;20305;-48
2022/03/09 10:28:59;;;;;;;;;;;6.10;79.20;;;5.55;43.43;97853.31;5014168;28;19918;-47
2022/03/09 10:31:37;;;;;;;;;;;6.10;78.20;;;5.59;43.67;97851.53;5009936;28;20004;-46
2022/03/09 10:34:06;;;;;;;;;;;6.20;78.20;;;5.88;42.55;97848.59;5014029;28;20511;-49
2022/03/09 10:36:31;;;;;;;;;;;6.30;77.10;;;5.82;42.95;97854.78;5011924;28;21129;-46
2022/03/09 10:39:11;;;;;;;;;;;6.40;77.30;;;6.00;42.13;97853.75;5011073;28;19920;-46
2022/03/09 10:41:36;;;;;;;;;;;6.50;76.20;;;6.11;42.33;97861.47;5015522;28;20089;-46
2022/03/09 10:44:02;;;;;;;;;;;6.60;76.30;;;6.14;41.84;97856.22;5013067;28;20740;-47
2022/03/09 10:46:40;;;;;;;;;;;6.70;75.40;;;6.28;41.66;97858.63;5009208;28;20223;-49
2022/03/09 10:49:07;;;;;;;;;;;6.80;75.10;;;6.40;40.85;97855.00;5012597;28;19921;-47
2022/03/09 10:51:35;;;;;;;;;;;6.90;73.70;;;6.30;40.95;97843.78;5015589;28;19960;-46
2022/03/09 10:54:10;;;;;;;;;;;7.00;73.60;;;6.33;41.55;97861.22;5014382;28;20241;-45
2022/03/09 10:56:36;;;;;;;;;;;7.00;74.60;;;6.50;40.67;97862.72;5010886;28;19924;-46
2022/03/09 10:59:28;;;;;;;;;;;7.00;73.60;;;6.57;41.06;97860.91;5029578;23;19936;-41
2022/03/09 11:02:08;;;;;;;;;;;7.10;74.20;;;6.49;41.42;97857.50;5010195;28;19989;-42
2022/03/09 11:04:34;;;;;;;;;;;7.10;73.50;;;6.59;41.00;97856.50;5012607;28;19935;-45
2022/03/09 11:06:59;;;;;;;;;;;7.20;73.60;;;6.48;40.89;97858.41;5007859;28;19924;-48
2022/03/09 11:09:26;;;;;;;;;;;7.20;73.20;;;6.52;41.17;97854.84;5006625;28;19939;-39
2022/03/09 11:11:51;;;;;;;;;;;7.10;73.30;;;6.54;41.51;97855.69;4992769;28;20031;-39
2022/03/09 11:14:19;;;;;;;;;;;7.20;73.90;;;6.66;41.25;97860.78;4972181;28;19995;-43
2022/03/09 11:16:46;;;;;;;;;;;7.20;73.90;;;6.67;41.55;97852.00;4987398;28;19917;-43
2022/03/09 11:19:13;;;;;;;;;;;7.30;74.00;;;6.76;40.96;97861.50;4997411;28;19959;-43
2022/03/09 11:21:40;;;;;;;;;;;7.40;73.30;;;6.84;40.31;97857.03;4992861;28;19925;-40